createdAt,value
2023-03-19T00:03:40.069Z,3.49
2023-03-19T00:07:43.345Z,3.60
2023-03-19T00:11:47.767Z,3.71
2023-03-19T00:15:50.976Z,3.84
2023-03-19T00:19:53.979Z,3.96
2023-03-19T00:24:01.253Z,4.01
2023-03-19T00:28:06.089Z,3.93
2023-03-19T00:32:09.692Z,3.89
2023-03-19T00:36:13.099Z,3.79
2023-03-19T00:40:16.074Z,3.71
2023-03-19T00:44:20.589Z,3.56
2023-03-19T00:48:28.344Z,3.41
2023-03-19T00:52:31.552Z,3.26
2023-03-19T00:56:34.797Z,3.13
2023-03-19T01:00:40.161Z,3.08
2023-03-19T01:04:45.912Z,3.09
2023-03-19T01:08:48.995Z,3.08
2023-03-19T01:12:52.998Z,3.11
2023-03-19T01:16:57.731Z,3.19
2023-03-19T01:21:00.857Z,3.28
2023-03-19T01:25:04.245Z,3.36
2023-03-19T01:29:07.226Z,3.41
2023-03-19T01:33:12.080Z,3.42
2023-03-19T01:37:15.619Z,3.37
2023-03-19T01:41:18.772Z,3.27
2023-03-19T01:45:36.695Z,3.17
2023-03-19T01:49:41.858Z,3.09
2023-03-19T01:53:49.441Z,3.04
2023-03-19T01:57:56.961Z,3.00
2023-03-19T02:02:03.476Z,2.94
2023-03-19T02:06:09.291Z,2.88
2023-03-19T02:10:15.389Z,2.87
2023-03-19T02:14:18.354Z,2.86
2023-03-19T02:18:22.340Z,2.85
2023-03-19T02:22:30.547Z,2.84
2023-03-19T02:26:35.471Z,2.82
2023-03-19T02:30:39.334Z,2.79
2023-03-19T02:34:43.868Z,2.76
2023-03-19T02:38:49.491Z,2.73
2023-03-19T02:42:54.559Z,2.68
2023-03-19T02:46:57.493Z,2.61
2023-03-19T02:51:00.944Z,2.54
2023-03-19T02:55:04.669Z,2.44
2023-03-19T02:59:09.706Z,2.32
2023-03-19T03:03:12.948Z,2.22
2023-03-19T03:07:16.219Z,2.16
2023-03-19T03:11:19.692Z,2.12
2023-03-19T03:15:24.279Z,2.07
2023-03-19T03:19:27.400Z,2.12
2023-03-19T03:23:30.958Z,2.19
2023-03-19T03:27:34.386Z,2.23
2023-03-19T03:31:39.041Z,2.30
2023-03-19T03:35:42.416Z,2.33
2023-03-19T03:39:45.083Z,2.40
2023-03-19T03:43:48.777Z,2.44
2023-03-19T03:47:54.261Z,2.44
2023-03-19T03:51:57.604Z,2.43
2023-03-19T03:56:00.278Z,2.42
2023-03-19T04:00:03.188Z,2.40
2023-03-19T04:04:07.806Z,2.44
2023-03-19T04:08:10.606Z,2.46
2023-03-19T04:12:14.141Z,2.45
2023-03-19T04:16:17.382Z,2.39
2023-03-19T04:20:24.788Z,2.34
2023-03-19T04:24:27.971Z,2.30
2023-03-19T04:28:31.579Z,2.22
2023-03-19T04:32:35.812Z,2.22
2023-03-19T04:36:40.225Z,2.22
2023-03-19T04:40:43.688Z,2.18
2023-03-19T04:44:46.550Z,2.13
2023-03-19T04:48:49.642Z,2.08
2023-03-19T04:52:54.097Z,2.02
2023-03-19T04:56:57.478Z,2.00
2023-03-19T05:01:00.526Z,2.01
2023-03-19T05:05:03.865Z,2.17
2023-03-19T05:09:09.680Z,2.27
2023-03-19T05:13:12.966Z,2.29
2023-03-19T05:17:16.099Z,2.43
2023-03-19T05:21:18.876Z,2.52
2023-03-19T05:25:23.272Z,2.68
2023-03-19T05:29:26.985Z,3.05
2023-03-19T05:33:29.611Z,3.48
2023-03-19T05:37:32.803Z,3.74
2023-03-19T05:41:37.225Z,4.03
2023-03-19T05:45:40.504Z,4.56
2023-03-19T05:49:43.709Z,5.04
2023-03-19T05:53:46.864Z,6.47
2023-03-19T05:57:51.307Z,9.35
2023-03-19T06:01:56.286Z,11.75
2023-03-19T06:05:59.897Z,13.51
2023-03-19T06:10:02.857Z,13.66
2023-03-19T06:14:07.062Z,13.72
2023-03-19T06:18:10.254Z,15.05
2023-03-19T06:22:13.275Z,15.67
2023-03-19T06:26:16.360Z,16.44
2023-03-19T06:30:20.906Z,17.97
2023-03-19T06:34:24.026Z,18.94
2023-03-19T06:38:27.207Z,20.03
2023-03-19T06:42:30.304Z,20.67
2023-03-19T06:46:34.680Z,20.41
2023-03-19T06:50:37.742Z,18.28
2023-03-19T06:54:40.933Z,16.71
2023-03-19T06:58:44.091Z,15.75
2023-03-19T07:02:48.757Z,15.55
2023-03-19T07:06:54.464Z,16.22
2023-03-19T07:10:58.577Z,17.62
2023-03-19T07:15:01.809Z,19.18
2023-03-19T07:19:06.469Z,20.66
2023-03-19T07:23:09.693Z,21.84
2023-03-19T07:27:12.816Z,21.66
2023-03-19T07:31:17.100Z,23.01
2023-03-19T07:35:21.694Z,23.53
2023-03-19T07:39:27.090Z,23.59
2023-03-19T07:43:30.394Z,23.59
2023-03-19T07:47:33.891Z,22.30
2023-03-19T07:51:38.518Z,22.43
2023-03-19T07:55:41.538Z,22.66
2023-03-19T07:59:45.117Z,23.10
2023-03-19T08:03:49.011Z,23.04
2023-03-19T08:07:53.718Z,21.89
2023-03-19T08:11:57.311Z,22.06
2023-03-19T08:16:00.208Z,21.90
2023-03-19T08:20:04.434Z,20.93
2023-03-19T08:24:09.015Z,21.00
2023-03-19T08:28:12.254Z,19.61
2023-03-19T08:32:14.913Z,19.67
2023-03-19T08:36:18.304Z,19.29
2023-03-19T08:40:22.896Z,19.61
2023-03-19T08:44:28.644Z,21.11
2023-03-19T08:48:33.154Z,22.03
2023-03-19T08:52:36.453Z,21.80
2023-03-19T08:56:42.071Z,20.95
2023-03-19T09:00:45.437Z,20.19
2023-03-19T09:04:49.123Z,20.08
2023-03-19T09:08:52.486Z,20.47
2023-03-19T09:12:57.324Z,20.37
2023-03-19T09:17:00.737Z,20.10
2023-03-19T09:21:04.350Z,19.81
2023-03-19T09:25:09.019Z,19.45
2023-03-19T09:29:13.576Z,19.59
2023-03-19T09:33:18.643Z,20.21
2023-03-19T09:37:21.550Z,21.29
2023-03-19T09:41:33.588Z,22.51
2023-03-19T09:45:38.324Z,23.10
2023-03-19T09:49:45.964Z,23.09
2023-03-19T09:53:55.196Z,24.36
2023-03-19T09:58:01.219Z,23.35
2023-03-19T10:02:32.898Z,23.88
2023-03-19T10:06:37.025Z,23.56
2023-03-19T10:10:54.016Z,24.24
2023-03-19T10:15:11.547Z,25.01
2023-03-19T10:19:22.369Z,24.89
2023-03-19T10:23:43.069Z,24.17
2023-03-19T10:27:48.249Z,24.10
2023-03-19T10:31:54.382Z,22.81
2023-03-19T10:36:03.690Z,21.27
2023-03-19T10:40:19.768Z,20.19
2023-03-19T10:44:32.697Z,20.11
2023-03-19T10:48:45.202Z,19.75
2023-03-19T10:52:54.363Z,19.26
2023-03-19T10:56:59.664Z,19.15
2023-03-19T11:01:07.230Z,19.29
2023-03-19T11:05:25.886Z,19.00
2023-03-19T11:09:35.292Z,18.70
2023-03-19T11:13:38.656Z,18.24
2023-03-19T11:17:46.693Z,17.98
2023-03-19T11:22:04.144Z,17.64
2023-03-19T11:26:10.417Z,17.75
2023-03-19T11:30:17.273Z,17.92
2023-03-19T11:34:34.203Z,18.18
2023-03-19T11:38:47.037Z,18.56
2023-03-19T11:43:09.386Z,18.61
2023-03-19T11:47:26.793Z,18.48
2023-03-19T11:51:37.501Z,18.25
2023-03-19T11:55:45.561Z,17.91
2023-03-19T12:00:10.909Z,17.69
2023-03-19T12:04:29.201Z,17.67
2023-03-19T12:08:39.896Z,17.74
2023-03-19T12:12:49.810Z,17.73
2023-03-19T12:17:10.408Z,17.61
2023-03-19T12:21:23.796Z,17.81
2023-03-19T12:25:36.808Z,17.89
2023-03-19T12:29:49.476Z,17.89
2023-03-19T12:34:09.724Z,17.69
2023-03-19T12:38:18.836Z,17.37
2023-03-19T12:42:24.375Z,17.21
2023-03-19T12:46:33.354Z,17.16
2023-03-19T12:50:40.960Z,17.10
2023-03-19T12:54:49.012Z,17.36
2023-03-19T12:58:59.703Z,17.61
2023-03-19T13:03:12.494Z,17.76
2023-03-19T13:07:22.202Z,17.48
2023-03-19T13:11:37.070Z,17.41
2023-03-19T13:15:43.189Z,16.98
2023-03-19T13:19:51.301Z,16.67
2023-03-19T13:24:05.887Z,16.39
2023-03-19T13:28:11.854Z,16.23
2023-03-19T13:32:27.539Z,16.15
2023-03-19T13:36:39.557Z,16.00
2023-03-19T13:40:47.687Z,15.91
2023-03-19T13:44:55.245Z,15.92
2023-03-19T13:49:09.920Z,15.98
2023-03-19T13:53:21.663Z,15.96
2023-03-19T13:57:40.734Z,16.05
2023-03-19T14:01:47.674Z,16.13
2023-03-19T14:05:54.824Z,16.23
2023-03-19T14:10:08.900Z,16.21
2023-03-19T14:14:17.623Z,16.12
2023-03-19T14:18:24.743Z,15.98
2023-03-19T14:22:36.772Z,15.77
2023-03-19T14:26:44.991Z,15.58
2023-03-19T14:30:50.658Z,15.38
2023-03-19T14:34:55.527Z,15.24
2023-03-19T14:39:02.307Z,15.21
2023-03-19T14:43:16.039Z,15.26
2023-03-19T14:47:31.377Z,15.29
2023-03-19T14:51:51.888Z,15.23
2023-03-19T14:55:55.321Z,15.06
2023-03-19T14:59:58.807Z,14.86
2023-03-19T15:04:08.159Z,14.65
2023-03-19T15:08:15.632Z,14.40
2023-03-19T15:12:35.554Z,14.23
2023-03-19T15:16:49.302Z,14.03
2023-03-19T15:20:55.808Z,13.88
2023-03-19T15:25:07.651Z,13.78
2023-03-19T15:29:12.500Z,13.76
2023-03-19T15:33:38.869Z,13.71
2023-03-19T15:37:49.325Z,13.66
2023-03-19T15:41:54.272Z,13.62
2023-03-19T15:45:59.898Z,13.50
2023-03-19T15:50:08.155Z,13.34
2023-03-19T15:54:13.130Z,13.19
2023-03-19T15:58:21.759Z,13.07
2023-03-19T16:02:28.445Z,12.91
2023-03-19T16:06:33.816Z,12.68
2023-03-19T16:10:44.363Z,12.39
2023-03-19T16:14:47.182Z,12.10
2023-03-19T16:18:53.666Z,11.80
2023-03-19T16:22:58.851Z,11.48
2023-03-19T16:27:06.728Z,11.17
2023-03-19T16:31:26.951Z,10.84
2023-03-19T16:35:31.719Z,10.58
2023-03-19T16:39:37.375Z,10.30
2023-03-19T16:43:46.412Z,10.08
2023-03-19T16:47:51.014Z,9.91
2023-03-19T16:51:54.284Z,9.73
2023-03-19T16:55:59.361Z,9.56
2023-03-19T17:00:05.289Z,9.38
2023-03-19T17:04:17.872Z,9.21
2023-03-19T17:08:23.320Z,9.07
2023-03-19T17:12:26.240Z,8.96
2023-03-19T17:16:31.523Z,8.85
2023-03-19T17:20:37.433Z,8.72
2023-03-19T17:24:40.963Z,8.62
2023-03-19T17:28:44.458Z,8.54
2023-03-19T17:32:51.898Z,8.46
2023-03-19T17:36:57.376Z,8.38
2023-03-19T17:41:00.868Z,8.29
2023-03-19T17:45:05.053Z,8.18
2023-03-19T17:49:16.416Z,8.10
2023-03-19T17:53:19.514Z,8.00
2023-03-19T17:57:22.129Z,7.91
2023-03-19T18:01:28.615Z,7.81
2023-03-19T18:05:33.121Z,7.72
2023-03-19T18:09:36.343Z,7.64
2023-03-19T18:13:39.970Z,7.54
2023-03-19T18:17:50.397Z,7.44
2023-03-19T18:21:55.432Z,7.37
2023-03-19T18:25:59.336Z,7.34
2023-03-19T18:30:06.498Z,7.32
2023-03-19T18:34:13.621Z,7.27
2023-03-19T18:38:21.225Z,7.25
2023-03-19T18:42:24.025Z,7.21
2023-03-19T18:46:30.485Z,7.17
2023-03-19T18:50:34.084Z,7.08
2023-03-19T18:54:40.273Z,6.98
2023-03-19T18:58:43.529Z,6.91
2023-03-19T19:02:47.576Z,6.85
2023-03-19T19:06:50.581Z,6.82
2023-03-19T19:11:00.251Z,6.77
2023-03-19T19:15:07.386Z,6.74
2023-03-19T19:19:20.779Z,6.70
2023-03-19T19:23:26.940Z,6.66
2023-03-19T19:27:31.453Z,6.58
2023-03-19T19:31:37.371Z,6.51
2023-03-19T19:35:40.097Z,6.39
2023-03-19T19:39:42.814Z,6.27
2023-03-19T19:43:48.034Z,6.14
2023-03-19T19:47:50.631Z,5.98
2023-03-19T19:51:53.370Z,5.84
2023-03-19T19:55:56.603Z,5.69
2023-03-19T20:00:00.653Z,5.55
2023-03-19T20:04:04.309Z,5.36
2023-03-19T20:08:07.774Z,5.19
2023-03-19T20:12:20.991Z,5.02
2023-03-19T20:16:27.459Z,4.85
2023-03-19T20:20:32.641Z,4.68
2023-03-19T20:24:35.801Z,4.57
2023-03-19T20:28:38.987Z,4.45
2023-03-19T20:32:44.082Z,4.32
2023-03-19T20:36:47.955Z,4.17
2023-03-19T20:40:54.788Z,4.04
2023-03-19T20:45:01.627Z,3.93
2023-03-19T20:49:06.620Z,3.86
2023-03-19T20:53:09.659Z,3.80
2023-03-19T20:57:15.217Z,3.75
2023-03-19T21:01:18.851Z,3.70
2023-03-19T21:05:24.825Z,3.62
2023-03-19T21:09:28.099Z,3.54
2023-03-19T21:13:32.072Z,3.51
2023-03-19T21:17:35.180Z,3.50
2023-03-19T21:21:39.835Z,3.48
2023-03-19T21:25:44.206Z,3.42
2023-03-19T21:29:47.682Z,3.36
2023-03-19T21:33:52.455Z,3.32
2023-03-19T21:37:57.002Z,3.29
2023-03-19T21:42:11.499Z,3.28
2023-03-19T21:46:24.154Z,3.18
2023-03-19T21:50:27.927Z,3.12
2023-03-19T21:54:32.606Z,3.09
2023-03-19T21:58:37.450Z,3.05
2023-03-19T22:02:42.269Z,3.02
2023-03-19T22:06:47.078Z,2.97
2023-03-19T22:10:55.885Z,2.99
2023-03-19T22:14:59.678Z,2.97
2023-03-19T22:19:03.212Z,2.92
2023-03-19T22:23:06.418Z,2.85
2023-03-19T22:27:17.085Z,2.78
2023-03-19T22:31:20.204Z,2.74
2023-03-19T22:35:23.068Z,2.72
2023-03-19T22:39:25.916Z,2.70
2023-03-19T22:43:33.644Z,2.69
2023-03-19T22:47:39.549Z,2.68
2023-03-19T22:51:43.878Z,2.66
2023-03-19T22:55:47.145Z,2.64
2023-03-19T22:59:51.650Z,2.61
2023-03-19T23:03:54.765Z,2.56
2023-03-19T23:08:00.287Z,2.51
2023-03-19T23:12:04.225Z,2.49
2023-03-19T23:16:26.611Z,2.48
2023-03-19T23:20:34.153Z,2.48
2023-03-19T23:24:37.874Z,2.51
2023-03-19T23:28:41.585Z,2.52
2023-03-19T23:32:46.131Z,2.53
2023-03-19T23:36:49.525Z,2.49
2023-03-19T23:40:54.214Z,2.44
2023-03-19T23:44:59.654Z,2.38
2023-03-19T23:49:03.913Z,2.33
2023-03-19T23:53:07.312Z,2.28
2023-03-19T23:57:15.803Z,2.20
